Briefing drone pour Romorantin-lanthenay (LFYR)

Rechercher une autre localisation

Conditions de vol :


Nous sommes le : Jeudi 11 août 2022
Il est 21:07 UTC (23:07 LT)

Lever de soleil : 04:18 UTC (06:18 LT)
Coucher de soleil : 19:38 UTC (21:38 LT)

Météo

L'essentiel des conditions de vol

VIGILANCE MÉTÉO FRANCE - Loir-et-Cher (41)
Vigilance Jaune : Canicule
METAR de LFYR
LFYR 112100Z AUTO VRB02KT CAVOK 23/08 Q1015

Date d'émission: 11/08/2022
Heure d'émission: 21:00 UTC
Vent: Variable 2 KT (4 km/h)
Visibilité horizontale: > 10 km
Plafond : Plafond et visibilité OK (CAVOK)
Température: 23 °C
Point de rosée: 8 °C
Humidité: 38%
Pression (QNH): 1015 hPa
TAF de LFYR
LFYR 111400Z 1115/1215 06010KT CAVOK

Conditions prévues :

Heure d'émission : Bulletin éffectué le 11 à 15:00 UTC
Prévision : Valide du 11 a 15:00 UTC au 12 a 15:00 UTC
Vent : 60° pour 10 KT (19 km/h)
Visibilité : > 10 km
WEBCAM POUR ROMORANTIN-LANTHENAY

Réglementation

Voler en sécurité

CARTES AERONAUTIQUE 1/500.000
CARTE AZBA (Reseau basse altitude)
CARTES VAC (LFYR)
SUP AIP




Chargement des AIP...
NOTAM (ROMORANTIN-LANTHENAY + Terrain à proximité / FIR )




Chargement des NOTAMS...
CONTACT PREFECTURE 41
Loir-et-Cher (41) : pref-bpas@loir-et-cher.gouv.fr


Avertissement : Les données mises à disposition sont indicatives. Oxygène Drone ne pourra être tenu responsable de dégâts causés aux biens et aux personnes.